Time;durP1;ratioP1;P1;durP2;ratioP2;P2;SDS_P1;SDS_P2;PMS_P1;PMS_P2;Temp;Humidity;BMP_temperature;BMP_pressure;BME280_temperature;BME280_humidity;BME280_pressure;Samples;Min_cycle;Max_cycle;Signal;HPM_P1;HPM_P2
2021/10/23 00:00:15;;;;;;;9.07;1.38;;;9.50;99.90;;;;;;5117997;27;20031;-73
2021/10/23 00:02:41;;;;;;;5.70;1.20;;;9.60;99.90;;;;;;5134797;27;20083;-73
2021/10/23 00:05:07;;;;;;;4.38;0.80;;;9.60;99.90;;;;;;5100914;27;20097;-72
2021/10/23 00:07:33;;;;;;;8.38;1.40;;;9.70;99.90;;;;;;5117924;27;20023;-72
2021/10/23 00:09:58;;;;;;;7.63;1.10;;;9.80;99.90;;;;;;5136215;27;20027;-72
2021/10/23 00:12:24;;;;;;;3.85;0.93;;;9.90;99.90;;;;;;5117281;27;20072;-72
2021/10/23 00:14:50;;;;;;;8.18;1.13;;;10.00;99.90;;;;;;5117413;27;20023;-71
2021/10/23 00:17:15;;;;;;;5.07;0.75;;;10.10;99.90;;;;;;5117391;27;20114;-74
2021/10/23 00:19:41;;;;;;;8.80;1.95;;;10.10;99.90;;;;;;5116760;27;20024;-73
2021/10/23 00:22:06;;;;;;;6.90;1.08;;;10.10;99.90;;;;;;5117560;27;20367;-72
2021/10/23 00:24:32;;;;;;;7.10;0.90;;;10.10;99.90;;;;;;5117203;27;20023;-71
2021/10/23 00:26:58;;;;;;;3.95;0.70;;;10.10;99.90;;;;;;5134186;27;20054;-71
2021/10/23 00:29:23;;;;;;;4.38;0.98;;;10.10;99.90;;;;;;5134283;27;20058;-70
2021/10/23 00:31:49;;;;;;;3.63;1.48;;;10.10;99.90;;;;;;5099992;27;20058;-73
2021/10/23 00:34:15;;;;;;;3.42;0.75;;;10.10;99.90;;;;;;5099965;27;20505;-73
2021/10/23 00:36:40;;;;;;;3.10;0.95;;;10.10;99.90;;;;;;5117147;27;20118;-72
2021/10/23 00:39:06;;;;;;;6.90;1.00;;;10.00;99.90;;;;;;5134075;27;20023;-72
2021/10/23 00:41:31;;;;;;;1.67;0.80;;;10.00;99.90;;;;;;5116791;27;20025;-71
2021/10/23 00:43:57;;;;;;;2.97;0.90;;;9.90;99.90;;;;;;5133718;27;20024;-71
2021/10/23 00:46:23;;;;;;;6.15;1.25;;;10.00;99.90;;;;;;5135242;27;20024;-72
2021/10/23 00:48:48;;;;;;;1.80;0.65;;;10.00;99.90;;;;;;5133617;27;20027;-72
2021/10/23 00:51:15;;;;;;;5.15;1.10;;;10.10;99.90;;;;;;5133796;27;20019;-72
2021/10/23 00:53:46;;;;;;;3.40;1.02;;;10.10;99.90;;;;;;5133641;27;20039;-73
2021/10/23 00:56:12;;;;;;;3.80;0.70;;;10.20;99.90;;;;;;5117201;27;20031;-71
2021/10/23 00:58:39;;;;;;;2.30;0.82;;;10.20;99.90;;;;;;5116682;27;20035;-72
2021/10/23 01:01:04;;;;;;;5.40;1.17;;;10.20;99.90;;;;;;5134066;27;20534;-70
2021/10/23 01:03:30;;;;;;;2.80;1.23;;;10.10;99.90;;;;;;5116555;27;20020;-71
2021/10/23 01:05:56;;;;;;;4.72;0.93;;;10.10;99.90;;;;;;5133772;27;20068;-69
2021/10/23 01:08:22;;;;;;;6.75;1.13;;;10.10;99.90;;;;;;5116293;27;20047;-72
2021/10/23 01:10:47;;;;;;;3.92;1.42;;;10.00;99.90;;;;;;5133300;27;20055;-71
2021/10/23 01:13:13;;;;;;;4.47;1.02;;;10.00;99.90;;;;;;5116136;27;20073;-72
2021/10/23 01:15:39;;;;;;;4.05;1.00;;;10.00;99.90;;;;;;5116211;27;20032;-71
2021/10/23 01:18:07;;;;;;;3.38;0.75;;;9.90;99.90;;;;;;5133607;27;20034;-71
2021/10/23 01:20:33;;;;;;;6.28;0.80;;;9.80;99.90;;;;;;5133573;27;20020;-70
2021/10/23 01:23:00;;;;;;;2.88;0.63;;;9.80;99.90;;;;;;5134624;27;20366;-73
2021/10/23 01:25:28;;;;;;;4.75;0.90;;;9.70;99.90;;;;;;5116121;27;20015;-75
2021/10/23 01:27:56;;;;;;;2.53;1.02;;;9.80;99.90;;;;;;5115770;27;20063;-72
2021/10/23 01:30:24;;;;;;;5.82;0.77;;;9.80;99.90;;;;;;5115896;27;20055;-75
2021/10/23 01:32:53;;;;;;;7.13;1.25;;;9.80;99.90;;;;;;5133336;27;20031;-73
2021/10/23 01:35:22;;;;;;;2.88;1.00;;;9.80;99.90;;;;;;5133492;27;20055;-72
2021/10/23 01:37:48;;;;;;;2.13;0.80;;;9.80;99.90;;;;;;5115974;27;20026;-73
2021/10/23 01:40:16;;;;;;;5.30;0.88;;;9.70;99.90;;;;;;5133134;27;20023;-73
2021/10/23 01:42:42;;;;;;;6.35;1.35;;;9.80;99.90;;;;;;5115921;28;20019;-72
2021/10/23 01:45:09;;;;;;;6.78;1.65;;;9.70;99.90;;;;;;5133095;28;20023;-73
2021/10/23 01:47:38;;;;;;;3.90;0.82;;;9.70;99.90;;;;;;5116077;28;20028;-74
2021/10/23 01:50:04;;;;;;;4.63;1.08;;;9.70;99.90;;;;;;5116064;28;20553;-73
2021/10/23 01:52:30;;;;;;;1.27;0.47;;;9.60;99.90;;;;;;5116266;28;20054;-73
2021/10/23 01:54:55;;;;;;;9.20;1.83;;;9.60;99.90;;;;;;5133211;27;20474;-73
2021/10/23 01:57:21;;;;;;;5.85;1.33;;;9.60;99.90;;;;;;5136887;28;20106;-74
2021/10/23 01:59:47;;;;;;;10.40;1.75;;;9.60;99.90;;;;;;5117957;28;20115;-70
2021/10/23 02:02:13;;;;;;;7.78;1.20;;;9.60;99.90;;;;;;5121427;28;20035;-71
2021/10/23 02:04:38;;;;;;;6.78;0.85;;;9.50;99.90;;;;;;5141268;28;20030;-70
2021/10/23 02:07:04;;;;;;;4.40;1.00;;;9.50;99.90;;;;;;5119137;28;20019;-71
2021/10/23 02:09:30;;;;;;;8.38;0.90;;;9.50;99.90;;;;;;5099185;28;20027;-71
2021/10/23 02:11:55;;;;;;;4.00;0.85;;;9.50;99.90;;;;;;5133169;27;20028;-71
2021/10/23 02:14:21;;;;;;;6.97;1.73;;;9.50;99.90;;;;;;5099431;28;20084;-71
2021/10/23 02:16:46;;;;;;;4.90;1.13;;;9.50;99.90;;;;;;5099310;28;20338;-71
2021/10/23 02:19:12;;;;;;;3.15;1.00;;;9.50;99.90;;;;;;5134648;27;20042;-72
2021/10/23 02:21:37;;;;;;;8.35;1.05;;;9.40;99.90;;;;;;5115910;28;20028;-71
2021/10/23 02:24:03;;;;;;;8.93;1.15;;;9.40;99.90;;;;;;5098524;28;20117;-73
2021/10/23 02:26:29;;;;;;;2.83;0.90;;;9.40;99.90;;;;;;5115868;28;20079;-71
2021/10/23 02:28:55;;;;;;;6.57;0.60;;;9.30;99.90;;;;;;5132604;28;20039;-71
2021/10/23 02:31:20;;;;;;;3.40;1.00;;;9.30;99.90;;;;;;5132459;27;20019;-70
2021/10/23 02:33:46;;;;;;;3.17;0.80;;;9.20;99.90;;;;;;5115857;28;20027;-72
2021/10/23 02:36:12;;;;;;;3.38;0.80;;;9.20;99.90;;;;;;5132961;28;20517;-72
2021/10/23 02:38:37;;;;;;;5.25;0.90;;;9.20;99.90;;;;;;5115744;28;20028;-73
2021/10/23 02:41:03;;;;;;;2.25;0.70;;;9.20;99.90;;;;;;5115691;28;20164;-73
2021/10/23 02:43:29;;;;;;;12.25;1.02;;;9.10;99.90;;;;;;5133769;27;20031;-72
2021/10/23 02:45:55;;;;;;;8.63;1.00;;;9.10;99.90;;;;;;5137637;27;20027;-71
2021/10/23 02:48:20;;;;;;;5.22;1.23;;;9.10;99.90;;;;;;5119190;27;20031;-72
2021/10/23 02:50:46;;;;;;;3.88;1.10;;;9.20;99.90;;;;;;5136198;27;20011;-71
2021/10/23 02:53:12;;;;;;;2.00;0.88;;;9.20;99.90;;;;;;5119817;27;20475;-70
2021/10/23 02:55:38;;;;;;;4.10;0.77;;;9.10;99.90;;;;;;5101841;27;20027;-73
2021/10/23 02:58:03;;;;;;;8.70;1.10;;;9.10;99.90;;;;;;5136238;27;20023;-72
2021/10/23 03:00:29;;;;;;;4.50;1.00;;;9.00;99.90;;;;;;5136477;27;20103;-72
2021/10/23 03:02:55;;;;;;;7.70;1.27;;;9.00;99.90;;;;;;5137430;27;20093;-71
2021/10/23 03:05:21;;;;;;;3.20;0.73;;;9.00;99.90;;;;;;5137392;27;20026;-71
2021/10/23 03:07:47;;;;;;;9.35;0.60;;;9.10;99.90;;;;;;5137386;27;20125;-72
2021/10/23 03:10:13;;;;;;;4.38;0.80;;;9.20;99.90;;;;;;5135829;27;20423;-70
2021/10/23 03:12:39;;;;;;;5.35;0.90;;;9.30;99.90;;;;;;5118400;27;20027;-71
2021/10/23 03:15:06;;;;;;;5.63;0.73;;;9.30;99.90;;;;;;5118546;27;20028;-70
2021/10/23 03:17:31;;;;;;;7.55;1.30;;;9.40;99.90;;;;;;5118576;27;20568;-72
2021/10/23 03:19:58;;;;;;;3.67;0.70;;;9.40;99.90;;;;;;5118640;27;20125;-72
2021/10/23 03:22:24;;;;;;;2.33;0.70;;;9.40;99.90;;;;;;5135925;27;20023;-72
2021/10/23 03:24:50;;;;;;;3.53;1.10;;;9.30;99.90;;;;;;5118912;27;20042;-71
2021/10/23 03:27:18;;;;;;;5.00;0.90;;;9.30;99.90;;;;;;5118331;27;20039;-70
2021/10/23 03:29:45;;;;;;;9.45;1.10;;;9.20;99.90;;;;;;5102156;27;20027;-71
2021/10/23 03:32:11;;;;;;;9.30;0.93;;;9.20;99.90;;;;;;5135303;27;20031;-70
2021/10/23 03:34:37;;;;;;;5.47;1.10;;;9.20;99.90;;;;;;5136455;27;20031;-70
2021/10/23 03:37:03;;;;;;;5.65;0.90;;;9.20;99.90;;;;;;5135477;27;20028;-72
2021/10/23 03:39:29;;;;;;;4.18;1.00;;;9.10;99.90;;;;;;5135647;27;20046;-71
2021/10/23 03:41:54;;;;;;;5.25;1.25;;;9.10;99.90;;;;;;5135258;27;20473;-70
2021/10/23 03:44:20;;;;;;;3.28;1.25;;;9.10;99.90;;;;;;5135133;27;20027;-71
2021/10/23 03:46:45;;;;;;;2.80;0.93;;;9.10;99.90;;;;;;5136298;27;20023;-70
2021/10/23 03:49:11;;;;;;;6.13;1.42;;;9.10;99.90;;;;;;5117938;27;20031;-70
2021/10/23 03:51:37;;;;;;;4.45;0.82;;;9.20;99.90;;;;;;5117911;27;20031;-70
2021/10/23 03:54:02;;;;;;;6.57;0.77;;;9.20;99.90;;;;;;5134692;27;20036;-71
2021/10/23 03:56:28;;;;;;;5.63;0.80;;;9.20;99.90;;;;;;5117175;27;20057;-70
2021/10/23 03:58:53;;;;;;;1.90;0.60;;;9.20;99.90;;;;;;5100720;27;20493;-70
2021/10/23 04:01:20;;;;;;;4.82;1.05;;;9.30;99.90;;;;;;5134796;27;20028;-72
2021/10/23 04:03:46;;;;;;;1.90;0.60;;;9.30;99.90;;;;;;5117855;27;20035;-71
2021/10/23 04:06:14;;;;;;;3.75;0.70;;;9.40;99.90;;;;;;5134719;27;20023;-70
2021/10/23 04:08:39;;;;;;;9.40;1.10;;;9.40;99.90;;;;;;5135803;27;20393;-70
2021/10/23 04:11:05;;;;;;;5.80;0.93;;;9.40;99.90;;;;;;5117406;27;20018;-71
2021/10/23 04:13:31;;;;;;;2.42;0.93;;;9.40;99.90;;;;;;5117406;27;20392;-71
2021/10/23 04:15:56;;;;;;;1.95;0.85;;;9.50;99.90;;;;;;5117283;27;20047;-70
2021/10/23 04:18:22;;;;;;;7.45;0.85;;;9.50;99.90;;;;;;5100367;27;20439;-70
2021/10/23 04:20:48;;;;;;;4.38;0.80;;;9.40;99.90;;;;;;5134557;27;20016;-71
2021/10/23 04:23:13;;;;;;;4.07;0.80;;;9.50;99.90;;;;;;5135628;27;20097;-71
2021/10/23 04:25:39;;;;;;;4.18;1.30;;;9.40;99.90;;;;;;5135763;27;20019;-71
2021/10/23 04:28:05;;;;;;;5.25;1.40;;;9.30;99.90;;;;;;5135191;27;20055;-71
2021/10/23 04:30:30;;;;;;;2.65;0.73;;;9.30;99.90;;;;;;5134141;27;20469;-71
2021/10/23 04:32:56;;;;;;;2.90;1.17;;;9.20;99.90;;;;;;5134520;27;20423;-71
2021/10/23 04:35:22;;;;;;;5.22;0.90;;;9.20;99.90;;;;;;5117034;27;20077;-70
2021/10/23 04:37:47;;;;;;;3.78;1.00;;;9.30;99.90;;;;;;5117449;27;20042;-71
2021/10/23 04:40:13;;;;;;;11.68;1.35;;;9.10;99.90;;;;;;5134030;27;20136;-71
2021/10/23 04:42:38;;;;;;;3.17;0.73;;;9.00;99.90;;;;;;5116864;27;20079;-70
2021/10/23 04:45:06;;;;;;;3.70;1.10;;;9.10;99.90;;;;;;5117483;27;20020;-71
2021/10/23 04:47:31;;;;;;;6.28;0.93;;;9.00;99.90;;;;;;5116789;27;20028;-71
2021/10/23 04:49:57;;;;;;;7.75;1.30;;;9.00;99.90;;;;;;5116624;27;20084;-70
2021/10/23 04:52:22;;;;;;;4.38;1.20;;;8.90;99.90;;;;;;5099552;27;20050;-70
2021/10/23 04:54:48;;;;;;;2.85;1.75;;;8.90;99.90;;;;;;5133755;27;20040;-71
2021/10/23 04:57:13;;;;;;;4.72;0.95;;;8.90;99.90;;;;;;5133547;27;20076;-70
2021/10/23 04:59:39;;;;;;;7.63;2.50;;;8.80;99.90;;;;;;5116433;27;20030;-71
2021/10/23 05:02:05;;;;;;;2.92;1.13;;;8.80;99.90;;;;;;5133482;27;20493;-71
2021/10/23 05:04:31;;;;;;;4.93;2.40;;;8.80;99.90;;;;;;5099577;27;20031;-71
2021/10/23 05:06:56;;;;;;;6.57;2.38;;;8.90;99.90;;;;;;5116384;27;20473;-70
2021/10/23 05:09:22;;;;;;;5.53;1.65;;;8.90;99.90;;;;;;5099469;27;20110;-72
2021/10/23 05:11:48;;;;;;;7.18;1.23;;;8.90;99.90;;;;;;5134684;27;20028;-70
2021/10/23 05:14:14;;;;;;;5.80;1.73;;;9.00;99.90;;;;;;5134058;27;20343;-71
2021/10/23 05:16:39;;;;;;;5.82;1.05;;;9.00;99.90;;;;;;5133382;27;20030;-71
2021/10/23 05:19:05;;;;;;;3.58;2.10;;;9.00;99.90;;;;;;5116068;27;20512;-70
2021/10/23 05:21:30;;;;;;;5.90;1.63;;;9.00;99.90;;;;;;5116024;27;20023;-70
2021/10/23 05:23:57;;;;;;;8.80;2.20;;;9.00;99.90;;;;;;5115950;27;20104;-71
2021/10/23 05:26:23;;;;;;;6.28;1.00;;;9.10;99.90;;;;;;5116201;27;20501;-72
2021/10/23 05:28:49;;;;;;;3.65;1.55;;;9.10;99.90;;;;;;5098753;27;20040;-75
2021/10/23 05:31:14;;;;;;;3.97;1.30;;;9.00;99.90;;;;;;5115972;27;20031;-74
2021/10/23 05:33:40;;;;;;;2.00;0.85;;;9.10;99.90;;;;;;5115916;27;20106;-74
2021/10/23 05:36:06;;;;;;;4.57;1.20;;;9.20;99.90;;;;;;5115843;27;20110;-76
2021/10/23 05:38:31;;;;;;;4.75;1.23;;;9.10;99.90;;;;;;5116225;28;20473;-75
2021/10/23 05:40:57;;;;;;;4.05;0.90;;;9.10;99.90;;;;;;5134701;27;20073;-76
2021/10/23 05:43:23;;;;;;;10.38;1.67;;;9.10;99.90;;;;;;5115875;27;20105;-75
2021/10/23 05:45:48;;;;;;;6.45;1.42;;;9.20;99.90;;;;;;5098745;28;20024;-75
2021/10/23 05:48:14;;;;;;;3.45;1.10;;;9.20;99.90;;;;;;5134208;27;20521;-75
2021/10/23 05:50:40;;;;;;;7.35;1.17;;;9.20;99.90;;;;;;5115897;28;20034;-74
2021/10/23 05:53:06;;;;;;;6.75;1.40;;;9.20;99.90;;;;;;5133038;27;20068;-75
2021/10/23 05:55:31;;;;;;;6.32;1.27;;;9.20;99.90;;;;;;5120639;28;20016;-74
2021/10/23 05:57:57;;;;;;;6.40;1.10;;;9.20;99.90;;;;;;5136023;27;20072;-74
2021/10/23 06:00:23;;;;;;;2.92;0.90;;;9.20;99.90;;;;;;5136274;27;20031;-71
2021/10/23 06:02:49;;;;;;;2.28;0.88;;;9.20;99.90;;;;;;5119555;28;20063;-71
2021/10/23 06:05:14;;;;;;;3.17;1.02;;;9.20;99.90;;;;;;5124020;28;20043;-71
2021/10/23 06:07:42;;;;;;;2.78;0.60;;;9.30;99.90;;;;;;5137683;28;20080;-70
2021/10/23 06:10:12;;;;;;;6.55;1.30;;;9.20;99.90;;;;;;5134034;28;20019;-70
2021/10/23 06:12:38;;;;;;;8.70;1.90;;;9.30;99.90;;;;;;5133353;28;20050;-70
2021/10/23 06:15:05;;;;;;;3.80;1.40;;;9.30;99.90;;;;;;5133208;28;20538;-70
2021/10/23 06:17:31;;;;;;;4.63;1.55;;;9.30;99.90;;;;;;5116258;28;20087;-71
2021/10/23 06:19:57;;;;;;;4.35;0.90;;;9.40;99.90;;;;;;5120019;27;20019;-72
2021/10/23 06:22:23;;;;;;;7.80;1.58;;;9.40;99.90;;;;;;5119497;27;20023;-70
2021/10/23 06:24:48;;;;;;;12.43;1.58;;;9.50;99.90;;;;;;5136856;27;20084;-70
2021/10/23 06:27:14;;;;;;;6.03;1.83;;;9.50;99.90;;;;;;5119557;27;20069;-70
2021/10/23 06:29:39;;;;;;;8.73;1.90;;;9.50;99.90;;;;;;5136960;27;20492;-71
2021/10/23 06:32:05;;;;;;;7.05;1.83;;;9.50;99.90;;;;;;5119353;27;20034;-70
2021/10/23 06:34:31;;;;;;;5.00;1.88;;;9.50;99.90;;;;;;5136670;27;20374;-70
2021/10/23 06:36:57;;;;;;;6.80;1.25;;;9.60;99.90;;;;;;5119950;27;20050;-72
2021/10/23 06:39:23;;;;;;;6.75;1.38;;;9.60;99.90;;;;;;5136500;27;20066;-71
2021/10/23 06:41:49;;;;;;;5.63;1.38;;;9.60;99.90;;;;;;5136581;27;20023;-71
2021/10/23 06:44:14;;;;;;;3.08;1.40;;;9.60;99.90;;;;;;5136654;27;20106;-71
2021/10/23 06:46:40;;;;;;;5.97;1.38;;;9.60;99.90;;;;;;5136291;27;20035;-70
2021/10/23 06:49:07;;;;;;;7.32;1.92;;;9.60;99.90;;;;;;5118921;27;20430;-72
2021/10/23 06:51:33;;;;;;;4.85;1.00;;;9.70;99.90;;;;;;5136293;27;20031;-71
2021/10/23 06:54:00;;;;;;;2.80;1.20;;;9.70;99.90;;;;;;5101978;27;20034;-69
2021/10/23 06:56:27;;;;;;;12.35;2.80;;;9.70;99.90;;;;;;5136083;27;20481;-71
2021/10/23 06:58:53;;;;;;;5.82;1.77;;;9.80;99.90;;;;;;5136134;27;20085;-70
2021/10/23 07:01:19;;;;;;;6.35;2.45;;;9.80;99.90;;;;;;5118922;27;20341;-72
2021/10/23 07:03:45;;;;;;;5.53;1.38;;;9.90;99.90;;;;;;5135934;27;20030;-71
2021/10/23 07:06:10;;;;;;;1.90;0.82;;;10.00;99.90;;;;;;5135586;27;20389;-71
2021/10/23 07:08:36;;;;;;;4.47;1.08;;;10.30;99.90;;;;;;5136111;27;20052;-70
2021/10/23 07:11:01;;;;;;;5.82;2.10;;;10.00;99.90;;;;;;5118626;27;20058;-69
2021/10/23 07:13:27;;;;;;;6.95;1.70;;;10.10;99.90;;;;;;5135817;27;20481;-69
2021/10/23 07:15:53;;;;;;;6.93;1.40;;;10.10;99.90;;;;;;5118607;27;20023;-71
2021/10/23 07:18:18;;;;;;;9.85;2.08;;;10.20;99.90;;;;;;5118898;27;20031;-70
2021/10/23 07:20:44;;;;;;;6.03;1.10;;;10.30;99.90;;;;;;5118547;27;20020;-71
2021/10/23 07:23:10;;;;;;;10.35;1.20;;;10.40;99.90;;;;;;5118490;27;20022;-71
2021/10/23 07:25:35;;;;;;;8.90;1.70;;;10.50;99.90;;;;;;5135734;27;20072;-72
2021/10/23 07:28:01;;;;;;;5.75;1.40;;;10.50;99.90;;;;;;5135473;27;20051;-71
2021/10/23 07:30:27;;;;;;;5.28;1.38;;;10.50;99.90;;;;;;5118373;27;20072;-72
2021/10/23 07:32:52;;;;;;;5.25;1.48;;;10.60;99.90;;;;;;5136138;27;20114;-71
2021/10/23 07:35:18;;;;;;;10.57;1.77;;;10.60;99.90;;;;;;5118221;27;20211;-69
2021/10/23 07:37:44;;;;;;;8.75;2.80;;;10.60;99.90;;;;;;5118382;27;20035;-72
2021/10/23 07:40:11;;;;;;;6.97;1.00;;;10.60;99.90;;;;;;5135396;27;20024;-71
2021/10/23 07:42:37;;;;;;;7.60;1.55;;;10.60;99.90;;;;;;5135828;27;20488;-73
2021/10/23 07:45:05;;;;;;;6.85;1.30;;;10.60;99.90;;;;;;5135128;27;20114;-71
2021/10/23 07:47:30;;;;;;;3.30;1.33;;;10.70;99.90;;;;;;5118014;27;20027;-73
2021/10/23 07:49:57;;;;;;;6.70;1.42;;;10.80;99.90;;;;;;5134993;27;20023;-72
2021/10/23 07:52:23;;;;;;;3.95;1.08;;;10.80;99.90;;;;;;5100927;27;20469;-71
2021/10/23 07:54:48;;;;;;;5.72;1.65;;;10.90;99.90;;;;;;5118033;27;20080;-70
2021/10/23 07:57:15;;;;;;;6.15;1.30;;;10.90;99.90;;;;;;5117767;27;20027;-71
2021/10/23 07:59:41;;;;;;;4.80;1.30;;;10.90;99.90;;;;;;5117762;27;20042;-72
2021/10/23 08:02:07;;;;;;;5.00;1.25;;;11.00;99.90;;;;;;5117971;27;20023;-73
2021/10/23 08:04:33;;;;;;;7.47;1.50;;;10.90;99.90;;;;;;5117579;27;20031;-70
2021/10/23 08:07:00;;;;;;;6.47;1.58;;;10.90;99.90;;;;;;5136139;27;20110;-71
2021/10/23 08:09:29;;;;;;;11.75;2.25;;;11.00;99.90;;;;;;5134952;27;20488;-70
2021/10/23 08:11:55;;;;;;;12.52;2.17;;;11.00;99.90;;;;;;5135154;27;20031;-72
2021/10/23 08:14:21;;;;;;;10.80;2.08;;;10.90;99.90;;;;;;5134699;27;20599;-71
2021/10/23 08:16:46;;;;;;;3.25;1.42;;;11.10;99.90;;;;;;5117849;27;20023;-71
2021/10/23 08:19:12;;;;;;;5.97;1.27;;;11.10;99.90;;;;;;5136183;27;20028;-70
2021/10/23 08:21:41;;;;;;;7.47;2.35;;;11.30;99.90;;;;;;5135716;27;20083;-69
2021/10/23 08:24:13;;;;;;;9.18;1.65;;;11.30;99.90;;;;;;5117278;27;20381;-71
2021/10/23 08:26:40;;;;;;;7.63;1.63;;;11.40;99.90;;;;;;5134089;27;20470;-70
2021/10/23 08:29:06;;;;;;;2.33;1.13;;;11.40;99.90;;;;;;5135651;27;20035;-74
2021/10/23 08:31:32;;;;;;;7.38;2.30;;;11.50;99.90;;;;;;5134595;27;20030;-71
2021/10/23 08:33:58;;;;;;;6.60;1.40;;;11.60;99.90;;;;;;5117225;27;20031;-71
2021/10/23 08:36:24;;;;;;;3.05;1.23;;;11.60;99.90;;;;;;5100245;27;20027;-70
2021/10/23 08:38:53;;;;;;;4.53;1.80;;;11.70;99.90;;;;;;5117364;27;20023;-71
2021/10/23 08:41:19;;;;;;;6.35;1.58;;;11.80;99.90;;;;;;5116661;27;20027;-71
2021/10/23 08:43:45;;;;;;;3.53;1.10;;;11.90;99.90;;;;;;5117269;27;20027;-72
2021/10/23 08:46:15;;;;;;;4.25;1.10;;;11.90;99.90;;;;;;5117081;27;20054;-72
2021/10/23 08:49:00;;;;;;;9.55;2.38;;;12.00;99.90;;;;;;5134609;27;20098;-75
2021/10/23 08:51:26;;;;;;;10.45;1.50;;;12.10;99.90;;;;;;5117338;27;20015;-73
2021/10/23 08:53:52;;;;;;;4.78;1.10;;;12.20;99.90;;;;;;5117050;27;20054;-70
2021/10/23 08:56:18;;;;;;;4.13;1.33;;;12.20;99.90;;;;;;5134475;27;20018;-73
2021/10/23 08:58:44;;;;;;;8.90;1.17;;;12.20;99.90;;;;;;5117159;27;20030;-72
2021/10/23 09:01:11;;;;;;;5.18;1.52;;;12.20;99.90;;;;;;5135814;27;20107;-72
2021/10/23 09:03:40;;;;;;;5.95;1.60;;;12.20;99.90;;;;;;5116791;27;20027;-73
2021/10/23 09:06:28;;;;;;;7.68;1.63;;;12.20;99.90;;;;;;5117266;27;20023;-73
2021/10/23 09:09:15;;;;;;;8.02;2.10;;;12.30;99.90;;;;;;5134917;27;20033;-72
2021/10/23 09:11:46;;;;;;;5.13;1.73;;;12.30;99.90;;;;;;5119090;27;20047;-70
2021/10/23 09:14:31;;;;;;;8.00;1.60;;;12.30;99.90;;;;;;5133707;27;20473;-72
2021/10/23 09:17:07;;;;;;;6.18;1.65;;;12.30;99.90;;;;;;5116775;27;20366;-72
2021/10/23 09:19:37;;;;;;;14.23;3.15;;;12.40;99.90;;;;;;5134058;27;20059;-72
2021/10/23 09:22:04;;;;;;;4.85;2.20;;;12.40;99.90;;;;;;5116537;27;20026;-70
2021/10/23 09:24:30;;;;;;;7.15;2.53;;;12.30;99.90;;;;;;5133812;27;20023;-73
2021/10/23 09:26:55;;;;;;;6.18;1.90;;;12.30;99.90;;;;;;5115910;27;20027;-71
2021/10/23 09:29:26;;;;;;;6.93;1.88;;;12.30;99.90;;;;;;5116251;27;20435;-72
2021/10/23 09:31:52;;;;;;;4.22;1.70;;;12.30;99.90;;;;;;5116789;27;20020;-74
2021/10/23 09:34:19;;;;;;;3.80;2.75;;;12.30;99.90;;;;;;5116387;28;20023;-70
2021/10/23 09:36:53;;;;;;;9.25;2.30;;;12.20;99.90;;;;;;5116495;27;20412;-76
2021/10/23 09:39:28;;;;;;;6.70;2.10;;;12.20;99.90;;;;;;5116669;27;20529;-73
2021/10/23 09:42:11;;;;;;;8.82;2.40;;;12.20;99.90;;;;;;5116496;28;20019;-71
2021/10/23 09:44:39;;;;;;;4.65;1.90;;;12.20;99.90;;;;;;5116199;27;20118;-70
2021/10/23 09:47:07;;;;;;;4.05;1.88;;;12.20;99.90;;;;;;5133787;27;20019;-71
2021/10/23 09:49:33;;;;;;;6.63;2.13;;;12.10;99.90;;;;;;5134111;28;20098;-70
2021/10/23 09:52:04;;;;;;;4.38;2.38;;;12.00;99.90;;;;;;5133455;27;20023;-70
2021/10/23 09:54:30;;;;;;;12.80;3.15;;;12.00;99.90;;;;;;5133005;28;20156;-76
2021/10/23 09:56:55;;;;;;;5.18;2.83;;;12.10;99.90;;;;;;5135007;27;20073;-71
2021/10/23 09:59:39;;;;;;;4.28;2.35;;;12.00;99.90;;;;;;5135965;27;20026;-71
2021/10/23 10:02:06;;;;;;;5.60;2.83;;;12.00;99.90;;;;;;5137343;27;20112;-72
2021/10/23 10:04:33;;;;;;;8.88;4.00;;;12.10;99.90;;;;;;5136007;28;20031;-71
2021/10/23 10:07:02;;;;;;;8.85;3.00;;;12.10;99.90;;;;;;5136026;28;20098;-75
2021/10/23 10:09:27;;;;;;;5.90;2.60;;;12.10;99.90;;;;;;5148851;28;20024;-73
2021/10/23 10:11:54;;;;;;;5.30;2.33;;;12.20;99.90;;;;;;5156564;28;20079;-71
2021/10/23 10:14:24;;;;;;;9.32;3.28;;;12.10;99.90;;;;;;5123154;28;20031;-73
2021/10/23 10:16:54;;;;;;;9.35;2.92;;;12.20;99.90;;;;;;5136387;28;20069;-72
2021/10/23 10:19:20;;;;;;;8.65;3.08;;;12.20;99.90;;;;;;5118135;28;20035;-72
2021/10/23 10:21:47;;;;;;;14.93;4.05;;;12.20;99.90;;;;;;5117494;28;20019;-71
2021/10/23 10:24:26;;;;;;;9.95;4.10;;;12.30;99.90;;;;;;5134792;28;20143;-71
2021/10/23 10:27:11;;;;;;;12.57;3.33;;;12.30;99.90;;;;;;5135768;27;20023;-70
2021/10/23 10:29:52;;;;;;;8.50;3.25;;;12.30;99.90;;;;;;5117096;28;20088;-77
2021/10/23 10:32:20;;;;;;;6.65;3.45;;;12.40;99.90;;;;;;5134249;28;20023;-71
2021/10/23 10:34:54;;;;;;;7.78;3.47;;;12.40;99.90;;;;;;5134751;28;20027;-70
2021/10/23 10:42:59;;;;;;;12.10;5.10;;;12.70;99.90;;;;;;5134596;27;20492;-72
2021/10/23 10:45:47;;;;;;;6.63;3.45;;;12.80;99.90;;;;;;5116330;28;20152;-78
2021/10/23 10:48:34;;;;;;;9.48;4.28;;;12.90;99.90;;;;;;5133365;28;20075;-71
2021/10/23 10:51:07;;;;;;;6.57;3.25;;;13.10;99.90;;;;;;5133289;28;20023;-70
2021/10/23 10:53:40;;;;;;;3.80;3.15;;;13.10;99.90;;;;;;5134674;27;20035;-73
2021/10/23 10:56:09;;;;;;;8.85;3.17;;;13.20;99.90;;;;;;5116842;28;20030;-72
2021/10/23 10:58:52;;;;;;;7.82;3.00;;;13.30;99.90;;;;;;5134222;28;20030;-71
2021/10/23 11:01:31;;;;;;;5.10;3.45;;;13.40;99.90;;;;;;5133521;28;20384;-71
2021/10/23 11:04:07;;;;;;;4.53;3.63;;;13.50;99.90;;;;;;5133879;27;20108;-72
2021/10/23 11:06:38;;;;;;;5.53;2.95;;;13.50;99.90;;;;;;5138304;27;20084;-77
2021/10/23 11:09:16;;;;;;;5.78;3.28;;;13.40;99.90;;;;;;5138104;27;20027;-71
2021/10/23 11:11:50;;;;;;;7.82;3.00;;;13.50;99.90;;;;;;5138240;27;20027;-71
2021/10/23 11:14:25;;;;;;;9.52;3.05;;;13.50;99.90;;;;;;5138661;27;20499;-74
2021/10/23 11:17:09;;;;;;;8.48;3.05;;;13.50;99.90;;;;;;5139559;27;20019;-74
2021/10/23 11:19:53;;;;;;;6.85;2.78;;;13.40;99.90;;;;;;5138633;27;20019;-71
2021/10/23 11:22:30;;;;;;;4.18;2.63;;;13.40;99.90;;;;;;5136915;27;20083;-70
2021/10/23 11:25:03;;;;;;;3.67;2.50;;;13.40;99.90;;;;;;5138169;27;20473;-71
2021/10/23 11:27:32;;;;;;;6.03;2.47;;;13.40;99.90;;;;;;5138306;27;20489;-73
2021/10/23 11:30:31;;;;;;;7.40;2.55;;;13.30;99.90;;;;;;5119856;27;20023;-72
2021/10/23 11:32:58;;;;;;;4.00;2.03;;;13.30;99.90;;;;;;5135286;27;20043;-71
2021/10/23 11:35:38;;;;;;;3.03;2.17;;;13.20;99.90;;;;;;5138311;27;20019;-72
2021/10/23 11:38:09;;;;;;;7.72;2.33;;;13.20;99.90;;;;;;5120617;27;20030;-71
2021/10/23 11:40:39;;;;;;;5.72;2.55;;;13.20;99.90;;;;;;5119196;27;20035;-72
2021/10/23 11:43:05;;;;;;;9.98;2.80;;;13.20;99.90;;;;;;5120304;27;20514;-72
2021/10/23 11:45:35;;;;;;;6.35;3.10;;;13.10;99.90;;;;;;5118951;27;20019;-70
2021/10/23 11:48:06;;;;;;;8.52;2.70;;;13.00;99.90;;;;;;5118704;27;20047;-72
2021/10/23 11:50:40;;;;;;;8.63;3.03;;;12.90;99.90;;;;;;5137884;27;20069;-73
2021/10/23 11:53:19;;;;;;;5.20;2.83;;;12.90;99.90;;;;;;5118915;27;20027;-74
2021/10/23 11:55:50;;;;;;;7.43;3.40;;;12.90;99.90;;;;;;5137130;27;20019;-71
2021/10/23 11:58:18;;;;;;;6.60;3.90;;;12.90;99.90;;;;;;5136927;27;20031;-71
2021/10/23 12:00:47;;;;;;;7.20;3.85;;;12.90;99.90;;;;;;5136038;27;20020;-72
2021/10/23 12:03:15;;;;;;;4.97;3.42;;;12.90;99.90;;;;;;5136036;27;20019;-73
2021/10/23 12:05:50;;;;;;;6.07;3.20;;;12.90;99.90;;;;;;5118400;27;20018;-70
2021/10/23 12:08:33;;;;;;;8.52;3.60;;;13.00;99.90;;;;;;5134094;27;20027;-71
2021/10/23 12:11:19;;;;;;;9.32;3.75;;;13.00;99.90;;;;;;5135154;27;20031;-73
2021/10/23 12:14:04;;;;;;;6.53;3.28;;;13.00;99.90;;;;;;5117881;27;20477;-72
2021/10/23 12:16:41;;;;;;;12.18;4.47;;;13.00;99.90;;;;;;5116983;27;20023;-73
2021/10/23 12:19:09;;;;;;;7.80;4.00;;;12.90;99.90;;;;;;5135303;27;20023;-70
2021/10/23 12:21:41;;;;;;;7.78;4.07;;;12.90;99.90;;;;;;5135242;27;20023;-72
2021/10/23 12:24:45;;;;;;;6.90;4.70;;;12.80;99.90;;;;;;5134639;27;20050;-72
2021/10/23 12:27:31;;;;;;;10.18;5.00;;;12.80;99.90;;;;;;5075939;28;20132;-73
2021/10/23 12:30:00;;;;;;;11.93;5.70;;;12.80;99.90;;;;;;5059793;28;20425;-71
2021/10/23 12:32:25;;;;;;;12.07;5.28;;;12.70;99.90;;;;;;5119821;27;20112;-71
2021/10/23 12:34:51;;;;;;;7.35;4.60;;;12.70;99.90;;;;;;5134509;27;20495;-72
2021/10/23 12:37:25;;;;;;;6.05;4.55;;;12.70;99.90;;;;;;5135551;27;20031;-72
2021/10/23 12:40:30;;;;;;;12.82;5.07;;;12.80;99.90;;;;;;5135970;27;20042;-73
2021/10/23 12:43:00;;;;;;;14.45;6.07;;;13.00;99.90;;;;;;5075515;28;20058;-70
2021/10/23 12:45:46;;;;;;;8.50;5.47;;;13.10;99.90;;;;;;5107684;27;20042;-72
2021/10/23 12:48:20;;;;;;;11.38;5.97;;;13.20;99.90;;;;;;5117050;27;20062;-71
2021/10/23 12:50:47;;;;;;;10.00;5.40;;;13.20;99.90;;;;;;5100693;27;20039;-71
2021/10/23 12:53:14;;;;;;;10.15;5.70;;;13.20;99.90;;;;;;5117122;27;20031;-71
2021/10/23 12:55:40;;;;;;;16.98;5.13;;;13.30;99.90;;;;;;5100547;27;20481;-77
2021/10/23 12:58:05;;;;;;;14.57;5.30;;;13.30;99.90;;;;;;5135338;27;20027;-72
2021/10/23 13:00:32;;;;;;;11.60;4.95;;;13.30;99.90;;;;;;5135153;27;20028;-71